Time;durP1;ratioP1;P1;durP2;ratioP2;P2;SDS_P1;SDS_P2;PMS_P1;PMS_P2;Temp;Humidity;BMP_temperature;BMP_pressure;BME280_temperature;BME280_humidity;BME280_pressure;Samples;Min_cycle;Max_cycle;Signal;HPM_P1;HPM_P2
2022/06/04 00:01:25;;;;;;;4.80;4.10;;;18.40;1.00;;;;;;4993872;28;20184;-69
2022/06/04 00:03:51;;;;;;;4.13;3.60;;;18.40;1.00;;;;;;4993436;28;20182;-68
2022/06/04 00:06:17;;;;;;;3.97;3.67;;;18.30;99.90;;;;;;4993774;28;20175;-68
2022/06/04 00:08:43;;;;;;;3.57;3.37;;;18.30;99.90;;;;;;4993454;28;20223;-68
2022/06/04 00:16:38;;;;;;;3.87;3.60;;;18.20;1.00;;;;;;4993684;28;20227;-68
2022/06/04 00:19:04;;;;;;;4.07;3.53;;;18.20;99.90;;;;;;4995645;28;20695;-69
2022/06/04 00:21:30;;;;;;;4.10;3.80;;;18.30;54.60;;;;;;4996996;28;20219;-69
2022/06/04 00:23:55;;;;;;;4.50;3.40;;;18.20;21.30;;;;;;4997321;28;20199;-67
2022/06/04 00:26:22;;;;;;;4.70;4.40;;;18.20;13.00;;;;;;4997204;28;20266;-69
2022/06/04 00:28:47;;;;;;;4.10;3.70;;;18.20;99.90;;;;;;4997062;28;20207;-68
2022/06/04 00:31:15;;;;;;;3.70;3.40;;;18.10;99.90;;;;;;4997117;28;20178;-68
2022/06/04 00:33:41;;;;;;;3.70;3.40;;;18.10;99.90;;;;;;4996873;28;20175;-68
2022/06/04 00:36:06;;;;;;;3.97;3.67;;;18.10;99.90;;;;;;4997193;28;20230;-69
2022/06/04 00:38:33;;;;;;;5.40;3.60;;;18.10;99.90;;;;;;4997049;28;20637;-68
2022/06/04 00:41:21;;;;;;;4.10;3.43;;;18.10;99.90;;;;;;4996852;28;20271;-68
2022/06/04 00:44:11;;;;;;;3.47;3.27;;;18.10;99.90;;;;;;4996995;28;20167;-68
2022/06/04 00:46:40;;;;;;;4.23;3.90;;;18.00;24.60;;;;;;4996864;28;20199;-68
2022/06/04 00:49:18;;;;;;;4.00;3.60;;;18.00;99.90;;;;;;4995143;28;20238;-68
2022/06/04 00:51:47;;;;;;;3.60;3.27;;;17.90;99.90;;;;;;4995476;28;20266;-68
2022/06/04 00:54:13;;;;;;;6.57;3.70;;;17.90;99.90;;;;;;4996682;28;20193;-68
2022/06/04 00:57:00;;;;;;;6.17;2.97;;;17.90;99.90;;;;;;4996569;28;20643;-67
2022/06/04 00:59:37;;;;;;;3.60;3.20;;;17.90;99.90;;;;;;4996702;28;20274;-68
2022/06/04 01:02:18;;;;;;;3.33;3.07;;;17.90;99.90;;;;;;4996199;28;20261;-68
2022/06/04 01:05:13;;;;;;;3.40;3.10;;;17.90;99.90;;;;;;4996564;28;20175;-67
2022/06/04 01:07:53;;;;;;;3.70;3.37;;;17.80;99.90;;;;;;4996542;28;20199;-67
2022/06/04 01:10:33;;;;;;;3.60;3.30;;;17.80;99.90;;;;;;4996587;28;20167;-68
2022/06/04 01:13:17;;;;;;;5.37;3.03;;;17.80;99.90;;;;;;4996245;28;20171;-68
2022/06/04 01:16:15;;;;;;;3.53;3.03;;;17.80;99.90;;;;;;4996167;28;20329;-68
2022/06/04 01:19:02;;;;;;;3.63;3.33;;;17.80;99.90;;;;;;4996368;28;20176;-68
2022/06/04 01:21:43;;;;;;;4.37;2.97;;;17.80;99.90;;;;;;4996110;28;20226;-68
2022/06/04 01:24:17;;;;;;;4.60;3.20;;;17.70;99.90;;;;;;4996234;28;20244;-67
2022/06/04 01:27:12;;;;;;;3.40;3.10;;;17.60;99.90;;;;;;4996105;28;20217;-69
2022/06/04 01:30:01;;;;;;;4.20;3.07;;;17.60;99.90;;;;;;4994600;28;20237;-67
2022/06/04 01:32:51;;;;;;;3.10;2.67;;;17.60;99.90;;;;;;4995680;28;20167;-67
2022/06/04 01:35:23;;;;;;;5.30;3.40;;;17.60;99.90;;;;;;4996185;28;20183;-69
2022/06/04 01:37:59;;;;;;;3.63;2.90;;;17.60;99.90;;;;;;4995873;28;20247;-68
2022/06/04 01:43:19;;;;;;;3.50;2.90;;;17.60;99.90;;;;;;4995788;28;20175;-68
2022/06/04 01:45:46;;;;;;;3.33;3.03;;;17.60;99.90;;;;;;4994369;28;20179;-68
2022/06/04 01:48:14;;;;;;;3.67;3.13;;;17.60;99.90;;;;;;4995608;28;20317;-68
2022/06/04 01:50:47;;;;;;;3.30;2.97;;;17.60;99.90;;;;;;4995496;28;20167;-68
2022/06/04 01:53:15;;;;;;;5.10;3.10;;;17.50;99.90;;;;;;4995656;28;20187;-68
2022/06/04 01:56:04;;;;;;;3.63;3.30;;;17.50;99.90;;;;;;4995531;28;20230;-68
2022/06/04 01:58:49;;;;;;;4.33;3.13;;;17.50;99.90;;;;;;4995427;28;20661;-67
2022/06/04 02:01:20;;;;;;;5.30;2.93;;;17.40;99.90;;;;;;4995119;28;20175;-67
2022/06/04 02:04:05;;;;;;;4.00;2.97;;;17.40;99.90;;;;;;4995628;28;20210;-67
2022/06/04 02:06:45;;;;;;;4.70;3.20;;;17.40;99.90;;;;;;4995286;28;20179;-68
2022/06/04 02:09:15;;;;;;;5.67;3.10;;;17.30;99.90;;;;;;4995414;28;20268;-67
2022/06/04 02:11:48;;;;;;;5.47;3.07;;;17.30;1.00;;;;;;4995239;28;20175;-67
2022/06/04 02:14:14;;;;;;;5.80;3.30;;;17.30;99.90;;;;;;4995075;28;20219;-67
2022/06/04 02:16:53;;;;;;;5.13;3.80;;;17.20;1.00;;;;;;4995494;28;20175;-68
2022/06/04 02:19:19;;;;;;;3.77;3.40;;;17.20;1.00;;;;;;4994087;28;20262;-68
2022/06/04 02:21:45;;;;;;;2.70;2.43;;;17.10;1.00;;;;;;4994823;28;20829;-68
2022/06/04 02:24:11;;;;;;;3.00;2.80;;;17.10;6.00;;;;;;4995102;28;20297;-68
2022/06/04 02:26:38;;;;;;;3.40;3.00;;;17.10;99.90;;;;;;4995336;28;20623;-68
2022/06/04 02:29:05;;;;;;;5.53;3.00;;;17.00;99.90;;;;;;4994691;28;20214;-68
2022/06/04 02:31:48;;;;;;;5.63;3.03;;;17.00;99.90;;;;;;4994816;28;20186;-68
2022/06/04 02:34:29;;;;;;;5.70;3.20;;;17.00;99.90;;;;;;4994995;28;20175;-68
2022/06/04 02:37:11;;;;;;;4.23;3.23;;;17.00;99.90;;;;;;4994916;28;20194;-68
2022/06/04 02:39:51;;;;;;;3.63;3.03;;;16.90;99.90;;;;;;4994624;28;20226;-68
2022/06/04 02:42:36;;;;;;;3.43;2.97;;;16.90;99.90;;;;;;4994820;28;20186;-68
2022/06/04 02:45:11;;;;;;;4.50;3.40;;;16.90;99.90;;;;;;4994587;28;20167;-68
2022/06/04 02:47:43;;;;;;;3.60;2.87;;;16.90;99.90;;;;;;4994758;28;20241;-67
2022/06/04 02:50:15;;;;;;;3.53;2.93;;;16.90;99.90;;;;;;4994831;28;20202;-68
2022/06/04 02:52:42;;;;;;;3.30;3.00;;;16.80;99.90;;;;;;4994688;28;20171;-68
2022/06/04 02:55:21;;;;;;;4.10;3.47;;;16.70;99.90;;;;;;4994361;28;20317;-68
2022/06/04 02:57:50;;;;;;;4.93;2.93;;;16.70;99.90;;;;;;4994039;28;20595;-68
2022/06/04 03:00:19;;;;;;;3.23;2.93;;;16.70;99.90;;;;;;4994629;28;20228;-68
2022/06/04 03:02:45;;;;;;;2.93;2.73;;;16.70;99.90;;;;;;4994465;28;20298;-68
2022/06/04 03:05:19;;;;;;;3.73;2.90;;;16.60;99.90;;;;;;4994254;28;20171;-68
2022/06/04 03:07:48;;;;;;;4.90;2.93;;;16.60;99.90;;;;;;4993862;28;20261;-68
2022/06/04 03:10:21;;;;;;;4.30;3.10;;;16.60;99.90;;;;;;4994193;28;20664;-67
2022/06/04 03:12:46;;;;;;;3.17;2.97;;;16.60;99.90;;;;;;4993652;28;20229;-68
2022/06/04 03:15:13;;;;;;;5.53;3.00;;;16.50;99.90;;;;;;4994042;28;20618;-68
2022/06/04 03:17:44;;;;;;;6.43;3.43;;;16.50;99.90;;;;;;4994001;28;20171;-68
2022/06/04 03:20:11;;;;;;;3.77;3.30;;;16.40;99.90;;;;;;4994193;28;20171;-68
2022/06/04 03:22:37;;;;;;;3.57;3.00;;;16.50;1.00;;;;;;4993865;28;20373;-67
2022/06/04 03:25:04;;;;;;;3.23;2.93;;;16.40;99.90;;;;;;4994193;28;20322;-68
2022/06/04 03:27:29;;;;;;;6.43;3.30;;;16.30;99.90;;;;;;4992371;28;20330;-68
2022/06/04 03:29:55;;;;;;;4.57;3.00;;;16.30;99.90;;;;;;4993874;28;20710;-68
2022/06/04 03:32:21;;;;;;;4.90;3.27;;;16.30;99.90;;;;;;4994107;28;20175;-68
2022/06/04 03:34:46;;;;;;;3.20;2.90;;;16.20;99.90;;;;;;4993811;28;20233;-68
2022/06/04 03:37:12;;;;;;;3.33;2.83;;;16.10;99.90;;;;;;4993974;28;20177;-67
2022/06/04 03:39:38;;;;;;;3.67;2.93;;;16.10;1.00;;;;;;4993889;28;20313;-67
2022/06/04 03:42:04;;;;;;;4.43;2.90;;;16.10;1.00;;;;;;4993492;28;20178;-68
2022/06/04 03:44:30;;;;;;;3.90;2.83;;;16.00;99.90;;;;;;4993814;28;20179;-67
2022/06/04 03:46:56;;;;;;;4.90;3.33;;;16.00;1.00;;;;;;4993853;28;20186;-67
2022/06/04 03:49:21;;;;;;;3.87;3.00;;;15.90;99.90;;;;;;4993402;28;20301;-69
2022/06/04 03:51:47;;;;;;;3.80;3.30;;;15.90;1.00;;;;;;4994220;28;20175;-67
2022/06/04 03:54:13;;;;;;;3.63;3.33;;;15.90;1.00;;;;;;4997638;28;20195;-68
2022/06/04 03:56:40;;;;;;;5.07;3.10;;;15.90;1.00;;;;;;4997439;28;20178;-68
2022/06/04 03:59:05;;;;;;;4.17;3.33;;;15.90;1.00;;;;;;4997494;28;20258;-68
2022/06/04 04:01:32;;;;;;;4.73;3.30;;;15.90;1.00;;;;;;4997985;28;20658;-67
2022/06/04 04:03:59;;;;;;;3.20;2.80;;;15.80;1.00;;;;;;4997239;28;20167;-67
2022/06/04 04:06:28;;;;;;;4.27;3.23;;;15.80;1.00;;;;;;4997309;28;20179;-68
2022/06/04 04:08:54;;;;;;;4.27;3.50;;;15.80;1.00;;;;;;4997533;28;20581;-68
2022/06/04 04:11:22;;;;;;;3.63;3.33;;;15.80;1.00;;;;;;4997165;28;20175;-68
2022/06/04 04:13:48;;;;;;;3.13;2.93;;;15.80;1.00;;;;;;4997131;28;20203;-68
2022/06/04 04:16:16;;;;;;;4.87;2.90;;;15.70;99.90;;;;;;4997337;28;20179;-68
2022/06/04 04:18:42;;;;;;;6.37;3.10;;;15.70;99.90;;;;;;4997238;28;20222;-68
2022/06/04 04:21:14;;;;;;;5.90;3.30;;;15.60;99.90;;;;;;4997091;28;20611;-68
2022/06/04 04:23:41;;;;;;;3.83;3.53;;;15.60;99.90;;;;;;4997086;28;20175;-68
2022/06/04 04:26:09;;;;;;;3.17;2.87;;;15.60;99.90;;;;;;4996542;28;20183;-67
2022/06/04 04:28:36;;;;;;;8.10;3.20;;;15.60;99.90;;;;;;4996585;28;20217;-67
2022/06/04 04:31:02;;;;;;;3.40;3.10;;;15.50;99.90;;;;;;4997174;28;20537;-67
2022/06/04 04:33:28;;;;;;;3.23;2.93;;;15.60;99.90;;;;;;4997265;28;20179;-67
2022/06/04 04:35:54;;;;;;;5.20;2.90;;;15.60;99.90;;;;;;4997004;28;20242;-67
2022/06/04 04:38:21;;;;;;;3.13;2.90;;;15.50;99.90;;;;;;4994675;28;20505;-68
2022/06/04 04:40:48;;;;;;;3.97;3.33;;;15.50;99.90;;;;;;4996401;28;20258;-67
2022/06/04 04:43:14;;;;;;;6.87;3.23;;;15.50;99.90;;;;;;4996738;28;20175;-68
2022/06/04 04:45:40;;;;;;;4.37;3.20;;;15.50;99.90;;;;;;4996596;28;20175;-68
2022/06/04 04:48:06;;;;;;;4.70;3.43;;;15.40;99.90;;;;;;4996348;28;20198;-67
2022/06/04 04:50:35;;;;;;;4.17;3.13;;;15.40;99.90;;;;;;4996604;28;20187;-68
2022/06/04 04:53:03;;;;;;;3.30;3.00;;;15.50;99.90;;;;;;4996745;28;20206;-68
2022/06/04 04:55:30;;;;;;;3.13;2.93;;;15.50;99.90;;;;;;4996258;28;20163;-67
2022/06/04 04:57:55;;;;;;;3.60;2.90;;;15.50;99.90;;;;;;4995946;28;20523;-67
2022/06/04 05:00:21;;;;;;;4.93;3.30;;;15.40;99.90;;;;;;4996362;28;20567;-67
2022/06/04 05:02:47;;;;;;;5.70;3.50;;;15.50;99.90;;;;;;4996238;28;20179;-67
2022/06/04 05:05:14;;;;;;;4.17;3.40;;;15.50;1.00;;;;;;4994918;28;20650;-68
2022/06/04 05:07:41;;;;;;;3.40;3.10;;;15.50;99.90;;;;;;4996337;28;20614;-68
2022/06/04 05:10:08;;;;;;;5.40;3.30;;;15.50;99.90;;;;;;4995900;28;20167;-66
2022/06/04 05:12:34;;;;;;;5.20;3.40;;;15.50;99.90;;;;;;4995892;28;20179;-67
2022/06/04 05:15:00;;;;;;;3.73;3.37;;;15.50;99.90;;;;;;4995860;28;20196;-68
2022/06/04 05:17:25;;;;;;;3.40;3.10;;;15.50;99.90;;;;;;4995968;28;20266;-68
2022/06/04 05:19:51;;;;;;;3.57;3.27;;;15.60;99.90;;;;;;4996078;28;20173;-68
2022/06/04 05:22:17;;;;;;;4.40;3.37;;;15.60;99.90;;;;;;4995309;28;20741;-69
2022/06/04 05:24:45;;;;;;;4.87;3.10;;;15.60;99.90;;;;;;4996056;28;20175;-68
2022/06/04 05:27:11;;;;;;;3.77;3.40;;;15.70;99.90;;;;;;4995521;28;20167;-68
2022/06/04 05:29:37;;;;;;;4.07;3.63;;;15.70;99.90;;;;;;4995516;28;20241;-68
2022/06/04 05:32:04;;;;;;;4.17;3.60;;;15.70;99.90;;;;;;4996204;28;20172;-68
2022/06/04 05:34:29;;;;;;;4.00;3.70;;;15.70;99.90;;;;;;4996090;28;20175;-68
2022/06/04 05:36:55;;;;;;;4.67;3.80;;;15.60;99.90;;;;;;4995548;28;20229;-67
2022/06/04 05:39:22;;;;;;;5.03;3.83;;;15.60;99.90;;;;;;4995782;28;20646;-67
2022/06/04 05:41:49;;;;;;;4.33;4.00;;;15.50;99.90;;;;;;4995391;28;20167;-69
2022/06/04 05:44:15;;;;;;;4.60;3.97;;;15.70;99.90;;;;;;4995625;28;20271;-68
2022/06/04 05:46:42;;;;;;;4.17;3.63;;;15.80;99.90;;;;;;4995813;28;20206;-68
2022/06/04 05:49:10;;;;;;;3.80;3.50;;;15.90;99.90;;;;;;4995220;28;20682;-69
2022/06/04 05:51:38;;;;;;;4.30;3.90;;;16.10;1.00;;;;;;4995016;28;20228;-68
2022/06/04 05:54:04;;;;;;;3.93;3.63;;;16.10;1.00;;;;;;4995609;28;20178;-69
2022/06/04 05:56:32;;;;;;;4.20;3.90;;;15.90;36.10;;;;;;4995400;28;20174;-68
2022/06/04 05:59:00;;;;;;;6.23;3.83;;;15.70;99.90;;;;;;4994491;28;20175;-69
2022/06/04 06:01:28;;;;;;;4.13;3.57;;;15.80;99.90;;;;;;4995493;28;20180;-68
2022/06/04 06:03:55;;;;;;;4.53;3.70;;;15.80;99.90;;;;;;4995346;28;20218;-67
2022/06/04 06:06:23;;;;;;;6.07;4.20;;;15.70;99.90;;;;;;4994931;28;20167;-69
2022/06/04 06:08:49;;;;;;;4.27;3.90;;;15.80;99.90;;;;;;4995144;28;20218;-68
2022/06/04 06:11:17;;;;;;;4.70;4.30;;;15.80;99.90;;;;;;4995145;28;20211;-68
2022/06/04 06:13:44;;;;;;;4.70;4.20;;;15.80;99.90;;;;;;4994863;28;20209;-69
2022/06/04 06:16:18;;;;;;;5.67;4.33;;;16.00;99.90;;;;;;4994338;28;20233;-69
2022/06/04 06:18:43;;;;;;;7.60;4.47;;;16.00;44.70;;;;;;4993497;28;20172;-69
2022/06/04 06:21:12;;;;;;;5.00;4.47;;;16.00;1.00;;;;;;4992631;28;20329;-68
2022/06/04 06:23:39;;;;;;;5.00;4.60;;;16.00;27.30;;;;;;4994613;28;20183;-68
2022/06/04 06:26:11;;;;;;;5.50;5.00;;;15.80;99.90;;;;;;4994786;28;20180;-68
2022/06/04 06:28:37;;;;;;;6.27;4.37;;;15.70;99.90;;;;;;4994523;28;20246;-68
2022/06/04 06:31:04;;;;;;;6.70;4.60;;;15.70;99.90;;;;;;4994471;28;20176;-69
2022/06/04 06:33:29;;;;;;;4.97;4.67;;;15.70;99.90;;;;;;4994749;28;20197;-68
2022/06/04 06:36:01;;;;;;;6.53;4.73;;;16.00;99.90;;;;;;4994509;28;20611;-68
2022/06/04 06:38:28;;;;;;;6.33;4.90;;;16.20;99.90;;;;;;4994671;28;20167;-69
2022/06/04 06:40:56;;;;;;;5.73;4.60;;;16.30;1.00;;;;;;4994264;28;20171;-68
2022/06/04 06:43:23;;;;;;;5.20;4.70;;;16.20;1.00;;;;;;4994223;28;20175;-68
2022/06/04 06:45:49;;;;;;;5.50;5.00;;;16.00;1.00;;;;;;4994632;28;20626;-69
2022/06/04 06:48:15;;;;;;;6.53;5.00;;;16.10;26.50;;;;;;4994126;28;20207;-69
2022/06/04 06:50:42;;;;;;;5.27;4.87;;;16.10;99.90;;;;;;4993925;28;20168;-68
2022/06/04 06:53:09;;;;;;;5.20;4.90;;;16.30;1.00;;;;;;4993932;28;20180;-68
2022/06/04 06:55:34;;;;;;;7.10;5.20;;;16.30;1.00;;;;;;4994169;28;20180;-68
2022/06/04 06:58:00;;;;;;;6.00;4.90;;;16.50;1.00;;;;;;4993432;28;20682;-68
2022/06/04 07:00:25;;;;;;;7.57;4.73;;;16.50;1.00;;;;;;4994018;28;20265;-68
2022/06/04 07:02:51;;;;;;;6.03;4.63;;;16.80;99.90;;;;;;4994377;28;20171;-68
2022/06/04 07:05:17;;;;;;;9.30;5.10;;;16.90;1.00;;;;;;4993440;28;20636;-68
2022/06/04 07:07:42;;;;;;;5.93;5.23;;;17.00;99.90;;;;;;4993991;28;20574;-69
2022/06/04 07:10:09;;;;;;;5.57;5.10;;;16.90;99.90;;;;;;4993763;28;20177;-69
2022/06/04 07:12:35;;;;;;;6.13;5.53;;;16.80;99.90;;;;;;4993521;28;20635;-69
2022/06/04 07:15:01;;;;;;;6.17;5.10;;;16.80;99.90;;;;;;4994083;28;20203;-69
2022/06/04 07:17:26;;;;;;;6.43;5.63;;;16.90;1.00;;;;;;4994091;28;20201;-69
2022/06/04 07:19:52;;;;;;;9.20;5.57;;;17.00;1.00;;;;;;4992244;28;20178;-69
2022/06/04 07:22:17;;;;;;;6.10;5.50;;;17.30;1.00;;;;;;4993095;28;20237;-69
2022/06/04 07:24:43;;;;;;;6.90;5.13;;;17.80;1.00;;;;;;4993803;28;20180;-69
2022/06/04 07:27:09;;;;;;;5.60;5.07;;;18.80;99.90;;;;;;4993892;28;20266;-69
2022/06/04 07:29:35;;;;;;;6.00;5.40;;;19.60;99.90;;;;;;4993718;28;20222;-69
2022/06/04 07:32:02;;;;;;;5.75;5.30;;;20.30;1.00;;;;;;4993331;28;20186;-69
2022/06/04 07:34:28;;;;;;;5.60;5.20;;;20.50;99.90;;;;;;4993364;28;20163;-69
2022/06/04 07:36:54;;;;;;;8.15;4.88;;;19.90;99.90;;;;;;4992471;28;20205;-70
2022/06/04 07:39:20;;;;;;;5.68;5.00;;;20.10;99.90;;;;;;4993572;28;20258;-70
2022/06/04 07:41:52;;;;;;;5.68;4.90;;;20.20;99.90;;;;;;4992876;28;20226;-69
2022/06/04 07:44:18;;;;;;;7.68;5.22;;;20.40;99.90;;;;;;4993607;28;20159;-70
2022/06/04 07:46:45;;;;;;;5.80;5.20;;;20.60;99.90;;;;;;4993445;28;20180;-70
2022/06/04 07:49:12;;;;;;;5.78;5.15;;;20.70;99.90;;;;;;4992738;28;20215;-70
2022/06/04 07:51:39;;;;;;;5.75;5.15;;;21.00;99.90;;;;;;4993409;28;20179;-70
2022/06/04 07:54:08;;;;;;;6.18;5.57;;;21.50;34.00;;;;;;4992935;28;20278;-70
2022/06/04 07:56:35;;;;;;;5.35;4.93;;;22.20;1.00;;;;;;4993415;28;20175;-71
2022/06/04 07:59:00;;;;;;;5.95;5.30;;;22.10;1.00;;;;;;4992604;28;20238;-71
2022/06/04 08:01:28;;;;;;;6.20;5.70;;;22.20;1.00;;;;;;4991678;28;20175;-72
2022/06/04 08:03:54;;;;;;;6.03;5.53;;;22.30;1.00;;;;;;4993322;28;20173;-70
2022/06/04 08:06:21;;;;;;;6.22;5.72;;;22.20;1.00;;;;;;4993397;28;20171;-71
2022/06/04 08:08:50;;;;;;;6.25;5.80;;;22.80;1.00;;;;;;4992739;28;20241;-71
2022/06/04 08:11:31;;;;;;;5.85;5.38;;;23.20;1.00;;;;;;4993046;28;20229;-70
2022/06/04 08:14:03;;;;;;;6.88;5.88;;;22.70;1.00;;;;;;4992982;28;20203;-71
2022/06/04 08:16:29;;;;;;;6.82;5.63;;;22.80;1.00;;;;;;4992859;28;20176;-71
2022/06/04 08:18:54;;;;;;;6.20;5.60;;;23.30;1.00;;;;;;4992589;28;20631;-69
2022/06/04 08:21:20;;;;;;;8.18;5.63;;;23.20;1.00;;;;;;4992757;28;20215;-70
2022/06/04 08:23:46;;;;;;;6.63;5.43;;;22.70;1.00;;;;;;4993678;28;20175;-70
2022/06/04 08:26:12;;;;;;;5.93;5.53;;;23.10;1.00;;;;;;4993141;28;20225;-71
2022/06/04 08:28:38;;;;;;;6.70;6.13;;;23.00;1.00;;;;;;4992519;28;20210;-71
2022/06/04 08:31:10;;;;;;;9.00;6.13;;;22.70;1.00;;;;;;4992281;28;20180;-71
2022/06/04 08:33:36;;;;;;;6.53;5.90;;;22.20;1.00;;;;;;4993344;28;20266;-71
2022/06/04 08:36:07;;;;;;;6.72;6.13;;;22.80;1.00;;;;;;4992914;28;20254;-70
2022/06/04 08:38:33;;;;;;;7.20;6.60;;;23.40;1.00;;;;;;4994387;28;20171;-71
2022/06/04 08:41:02;;;;;;;6.40;5.88;;;23.90;1.00;;;;;;4996277;28;20189;-71
2022/06/04 08:43:42;;;;;;;7.25;6.18;;;22.60;1.00;;;;;;4995987;28;20167;-71
2022/06/04 08:46:17;;;;;;;7.13;6.43;;;23.60;1.00;;;;;;4996290;28;20642;-71
2022/06/04 08:48:43;;;;;;;6.80;6.13;;;23.50;1.00;;;;;;4996547;28;20206;-70
2022/06/04 08:51:20;;;;;;;6.88;6.13;;;24.00;1.00;;;;;;4996698;28;20650;-71
2022/06/04 08:53:50;;;;;;;7.63;6.05;;;24.80;99.90;;;;;;4995077;28;20566;-72
2022/06/04 08:59:35;;;;;;;7.32;6.57;;;26.40;99.90;;;;;;4996008;28;20233;-71
2022/06/04 09:02:04;;;;;;;7.82;7.07;;;25.70;99.90;;;;;;4995674;28;20551;-71
2022/06/04 09:04:52;;;;;;;7.88;7.07;;;25.80;99.90;;;;;;4996141;28;20257;-70
2022/06/04 09:07:25;;;;;;;9.32;7.30;;;25.40;99.90;;;;;;4996046;28;20172;-71
2022/06/04 09:10:08;;;;;;;8.35;7.55;;;24.80;99.90;;;;;;4995905;28;20243;-71
2022/06/04 09:12:55;;;;;;;8.43;7.72;;;24.10;99.90;;;;;;4996217;28;20176;-70
2022/06/04 09:15:37;;;;;;;7.85;7.03;;;23.30;99.90;;;;;;4995934;28;20246;-72
2022/06/04 09:18:31;;;;;;;8.82;8.02;;;24.50;99.90;;;;;;4994778;28;20233;-72
2022/06/04 09:20:59;;;;;;;8.00;7.25;;;24.80;99.90;;;;;;4995287;28;20175;-70
2022/06/04 09:23:34;;;;;;;7.78;7.07;;;25.00;99.90;;;;;;4995844;28;20167;-71
2022/06/04 09:26:13;;;;;;;8.02;7.30;;;26.10;99.90;;;;;;4996042;28;20270;-71
2022/06/04 09:29:05;;;;;;;7.38;6.78;;;25.50;99.90;;;;;;4995532;28;20265;-71
2022/06/04 09:31:42;;;;;;;8.77;6.82;;;26.50;99.90;;;;;;4995370;28;20176;-72
2022/06/04 09:34:42;;;;;;;10.25;7.60;;;26.90;99.90;;;;;;4995539;28;20290;-72
2022/06/04 09:37:09;;;;;;;8.20;7.50;;;26.60;99.90;;;;;;4993205;28;20209;-71
2022/06/04 09:39:38;;;;;;;8.65;7.78;;;26.00;99.90;;;;;;4993354;28;20730;-71
2022/06/04 09:42:21;;;;;;;9.60;7.50;;;26.60;99.90;;;;;;4976663;28;20191;-71
2022/06/04 09:44:58;;;;;;;8.43;7.57;;;26.60;99.90;;;;;;4993036;28;20197;-72
2022/06/04 09:47:33;;;;;;;8.70;8.00;;;27.30;99.90;;;;;;4993015;28;20262;-69
2022/06/04 09:50:02;;;;;;;8.43;7.28;;;26.80;99.90;;;;;;4992321;28;20206;-71
2022/06/04 09:52:40;;;;;;;9.98;8.38;;;25.40;99.90;;;;;;4992770;28;20167;-70
2022/06/04 09:55:15;;;;;;;9.43;8.65;;;24.10;99.90;;;;;;4993140;28;20187;-71
2022/06/04 09:57:41;;;;;;;8.90;8.00;;;24.10;99.90;;;;;;4993019;28;20245;-70
2022/06/04 10:00:20;;;;;;;8.65;7.88;;;23.70;99.90;;;;;;4991679;28;20186;-70
2022/06/04 10:03:00;;;;;;;9.45;8.15;;;23.70;99.90;;;;;;4992246;28;20314;-73
2022/06/04 10:05:30;;;;;;;9.75;7.68;;;24.30;99.90;;;;;;4992920;28;20219;-71
2022/06/04 10:07:57;;;;;;;8.23;7.43;;;24.60;99.90;;;;;;4992817;28;20233;-71
2022/06/04 10:10:44;;;;;;;10.30;8.60;;;25.00;99.90;;;;;;4992670;28;20635;-70
2022/06/04 10:16:33;;;;;;;10.27;9.15;;;23.20;99.90;;;;;;4994895;28;20556;-71
2022/06/04 10:19:00;;;;;;;10.00;7.65;;;23.20;99.90;;;;;;4993400;28;20171;-71
2022/06/04 10:21:40;;;;;;;10.98;9.55;;;24.00;99.90;;;;;;4993553;28;20223;-71
2022/06/04 10:24:30;;;;;;;9.95;8.27;;;24.90;99.90;;;;;;4994413;28;20171;-70
2022/06/04 10:27:33;;;;;;;9.88;8.95;;;25.20;99.90;;;;;;4993993;28;20175;-71
2022/06/04 10:30:04;;;;;;;9.98;8.20;;;24.70;99.90;;;;;;4994389;28;20207;-71
2022/06/04 10:32:59;;;;;;;9.32;8.52;;;25.20;99.90;;;;;;4993909;28;20201;-70
2022/06/04 10:35:50;;;;;;;9.80;9.00;;;24.60;99.90;;;;;;4994387;28;20171;-71
2022/06/04 10:38:19;;;;;;;9.23;8.40;;;25.20;99.90;;;;;;4994731;28;20654;-71
2022/06/04 10:41:03;;;;;;;8.93;7.93;;;26.10;99.90;;;;;;4992549;28;20580;-70
2022/06/04 10:43:43;;;;;;;9.10;8.07;;;26.10;99.90;;;;;;4992523;28;20245;-71
2022/06/04 10:46:27;;;;;;;9.82;8.82;;;26.20;99.90;;;;;;4993133;28;20175;-71
2022/06/04 10:49:17;;;;;;;9.43;8.52;;;26.10;99.90;;;;;;4994123;28;20199;-70
2022/06/04 10:51:56;;;;;;;10.10;9.20;;;25.00;99.90;;;;;;4993651;28;20167;-71
2022/06/04 10:54:39;;;;;;;10.23;9.32;;;25.20;99.90;;;;;;4994008;28;20530;-71
2022/06/04 10:57:15;;;;;;;9.73;8.93;;;24.50;99.90;;;;;;4992725;28;20176;-71
2022/06/04 11:00:16;;;;;;;10.13;9.27;;;24.90;99.90;;;;;;4993266;28;20175;-71
2022/06/04 11:02:51;;;;;;;11.38;10.48;;;25.30;99.90;;;;;;4993257;28;20250;-71
2022/06/04 11:05:19;;;;;;;10.98;9.43;;;24.60;99.90;;;;;;4993228;28;20174;-70
2022/06/04 11:07:59;;;;;;;9.68;8.80;;;24.20;99.90;;;;;;4993547;28;20181;-70
2022/06/04 11:10:28;;;;;;;10.40;9.50;;;24.10;99.90;;;;;;4993237;28;20191;-70
2022/06/04 11:13:13;;;;;;;10.90;9.80;;;24.00;99.90;;;;;;4992623;28;20198;-69
2022/06/04 11:15:44;;;;;;;10.77;9.93;;;23.50;99.90;;;;;;4993925;28;20278;-69
2022/06/04 11:18:17;;;;;;;11.55;10.52;;;22.70;1.00;;;;;;4993450;28;20254;-70
2022/06/04 11:20:58;;;;;;;11.27;9.73;;;22.50;1.00;;;;;;4992458;28;20603;-70
2022/06/04 11:23:50;;;;;;;11.75;9.50;;;22.80;1.00;;;;;;4993759;28;20191;-69
2022/06/04 11:26:36;;;;;;;14.02;11.73;;;22.70;1.00;;;;;;4993325;28;20160;-69
2022/06/04 11:29:03;;;;;;;10.88;9.77;;;22.70;1.00;;;;;;4992964;28;20682;-69
2022/06/04 11:31:35;;;;;;;11.23;9.55;;;23.10;1.00;;;;;;4993040;28;20175;-69
2022/06/04 11:34:33;;;;;;;11.40;10.40;;;23.80;1.00;;;;;;4993347;28;20250;-69
2022/06/04 11:37:37;;;;;;;12.05;10.85;;;23.90;1.00;;;;;;4993204;28;20164;-70
2022/06/04 11:40:12;;;;;;;11.80;10.57;;;23.30;1.00;;;;;;4971446;28;20187;-69
2022/06/04 11:42:43;;;;;;;11.18;10.05;;;23.30;1.00;;;;;;4972242;28;20175;-69
2022/06/04 11:45:32;;;;;;;12.10;11.00;;;23.60;1.00;;;;;;4970905;28;20272;-69
2022/06/04 11:48:09;;;;;;;11.40;10.20;;;23.90;1.00;;;;;;4971779;28;20182;-68
2022/06/04 11:50:52;;;;;;;10.98;10.05;;;23.80;1.00;;;;;;4971167;28;20191;-69
2022/06/04 11:53:25;;;;;;;15.05;11.48;;;23.50;1.00;;;;;;4971831;28;20180;-69
2022/06/04 11:55:55;;;;;;;15.00;11.77;;;23.30;1.00;;;;;;4971349;28;20188;-68
2022/06/04 11:58:42;;;;;;;13.63;12.27;;;23.50;1.00;;;;;;4970968;28;20238;-68
2022/06/04 12:01:15;;;;;;;12.15;11.00;;;23.50;1.00;;;;;;4971192;28;20164;-69
2022/06/04 12:03:53;;;;;;;11.35;10.25;;;23.40;1.00;;;;;;4971761;28;20581;-69
2022/06/04 12:06:32;;;;;;;12.90;11.60;;;23.70;1.00;;;;;;4970406;28;20192;-69
2022/06/04 12:09:00;;;;;;;13.70;12.32;;;23.70;1.00;;;;;;4971197;28;20306;-69
2022/06/04 12:11:40;;;;;;;13.32;12.02;;;23.70;1.00;;;;;;4987475;28;20233;-70
2022/06/04 12:14:30;;;;;;;13.27;12.00;;;23.40;1.00;;;;;;4995253;28;20191;-69
2022/06/04 12:17:25;;;;;;;11.45;10.35;;;23.50;1.00;;;;;;4996854;28;20172;-69
2022/06/04 12:25:59;;;;;;;11.75;10.65;;;23.50;1.00;;;;;;4995215;28;20181;-68
2022/06/04 12:28:39;;;;;;;15.35;12.48;;;23.70;1.00;;;;;;4995340;28;20561;-69
2022/06/04 12:31:04;;;;;;;12.25;10.93;;;23.50;1.00;;;;;;4996800;28;20163;-69
2022/06/04 12:33:34;;;;;;;11.13;10.02;;;23.70;1.00;;;;;;4996404;28;20541;-70
2022/06/04 12:36:00;;;;;;;12.35;11.25;;;24.00;1.00;;;;;;4996228;28;20195;-69
2022/06/04 12:38:26;;;;;;;13.48;12.27;;;23.70;1.00;;;;;;4994848;28;20273;-69
2022/06/04 12:41:21;;;;;;;11.70;10.63;;;23.40;1.00;;;;;;4996046;28;20322;-69
2022/06/04 12:43:59;;;;;;;11.73;10.68;;;23.60;1.00;;;;;;4996512;28;20183;-70
2022/06/04 12:46:25;;;;;;;14.05;12.00;;;23.50;1.00;;;;;;4995124;28;20626;-69
2022/06/04 12:48:54;;;;;;;12.20;11.13;;;23.70;1.00;;;;;;4995671;28;20226;-70
2022/06/04 12:51:49;;;;;;;13.43;12.10;;;23.60;1.00;;;;;;4996335;28;20176;-70
2022/06/04 12:54:25;;;;;;;13.30;12.00;;;23.60;1.00;;;;;;4995933;28;20207;-70
2022/06/04 12:57:15;;;;;;;11.13;10.05;;;23.50;1.00;;;;;;4994810;28;20534;-71
2022/06/04 12:59:44;;;;;;;13.52;12.23;;;23.90;1.00;;;;;;4994386;28;20175;-70
2022/06/04 13:02:35;;;;;;;13.70;12.43;;;24.10;1.00;;;;;;4995934;28;20665;-70
2022/06/04 13:05:10;;;;;;;13.90;12.60;;;23.90;1.00;;;;;;4994030;28;20189;-69
2022/06/04 13:08:03;;;;;;;12.98;11.68;;;23.90;1.00;;;;;;4995053;28;20206;-70
2022/06/04 13:10:44;;;;;;;12.65;11.40;;;23.80;1.00;;;;;;4974006;28;20192;-70
2022/06/04 13:13:22;;;;;;;17.13;13.32;;;24.00;1.00;;;;;;4974077;28;20183;-70
2022/06/04 13:15:52;;;;;;;12.57;11.15;;;24.00;1.00;;;;;;4974394;28;20210;-71
2022/06/04 13:18:28;;;;;;;12.63;11.30;;;24.40;1.00;;;;;;4974009;28;20651;-70
2022/06/04 13:21:00;;;;;;;13.68;11.90;;;24.70;1.00;;;;;;4973350;28;20190;-71
2022/06/04 13:23:36;;;;;;;14.55;11.00;;;24.50;1.00;;;;;;4972712;28;20188;-71
2022/06/04 13:26:25;;;;;;;12.48;10.95;;;24.60;1.00;;;;;;4973026;28;20278;-69
2022/06/04 13:28:50;;;;;;;13.13;11.65;;;24.60;1.00;;;;;;4972583;28;20266;-69
2022/06/04 13:31:27;;;;;;;15.25;13.40;;;24.40;1.00;;;;;;4972900;28;20581;-70
2022/06/04 13:33:55;;;;;;;12.93;11.50;;;24.50;1.00;;;;;;4972272;28;20288;-69
2022/06/04 13:36:30;;;;;;;11.15;10.25;;;24.50;1.00;;;;;;4972650;28;20172;-70